Rivers, Canada
Current Conditions -  °F | °C
As of 12:15 AM on Saturday 20 Dec 2014 (Local Time) from CYBR Reporting Station
Freezing Drizzle Freezing Drizzle  
Wind Chill: 23°   Ceiling: 500
Heat Index: 23°   Visibility: 2mi
Dew Point: 21°   Wind: 0mph
Humidity: 93%   Direction: NA
Pressure: 29.97"   Gusts: NA
Location:  50.03°N, 100.22°W
Report Text: CYBR 200615Z 00000KT 2SM -FZDZ BR OVC005 M05/M06 A2997 RMK ST8 SLP178
Loading
Personal Weather Stations






























Interactive Weather Map New forecast layout! Learn more

10-Day Weather Forecast

Advertisements
Track Severe Weather on mobile